createdAt,value
2024-03-04T00:01:29.056Z,10.10
2024-03-04T00:03:57.288Z,9.60
2024-03-04T00:06:24.941Z,10.10
2024-03-04T00:08:54.881Z,9.70
2024-03-04T00:11:22.455Z,9.90
2024-03-04T00:13:49.903Z,10.70
2024-03-04T00:16:17.478Z,10.50
2024-03-04T00:18:44.979Z,9.30
2024-03-04T00:21:12.469Z,9.80
2024-03-04T00:23:40.043Z,10.70
2024-03-04T00:26:08.234Z,9.90
2024-03-04T00:28:35.776Z,9.60
2024-03-04T00:31:04.546Z,9.50
2024-03-04T00:33:32.909Z,9.00
2024-03-04T00:36:00.509Z,9.90
2024-03-04T00:38:28.358Z,9.70
2024-03-04T00:40:56.054Z,9.30
2024-03-04T00:43:23.550Z,9.80
2024-03-04T00:45:51.498Z,9.40
2024-03-04T00:48:19.141Z,9.00
2024-03-04T00:50:47.121Z,9.80
2024-03-04T00:53:14.593Z,11.40
2024-03-04T00:55:42.132Z,9.70
2024-03-04T00:58:10.340Z,9.30
2024-03-04T01:00:38.491Z,9.40
2024-03-04T01:03:06.563Z,10.50
2024-03-04T01:05:34.807Z,10.20
2024-03-04T01:08:02.310Z,9.10
2024-03-04T01:10:29.821Z,9.40
2024-03-04T01:12:57.780Z,9.50
2024-03-04T01:15:27.119Z,9.80
2024-03-04T01:17:54.903Z,10.50
2024-03-04T01:20:22.487Z,9.60
2024-03-04T01:22:50.982Z,9.70
2024-03-04T01:25:18.590Z,8.70
2024-03-04T01:27:46.732Z,9.30
2024-03-04T01:30:15.198Z,10.70
2024-03-04T01:32:44.359Z,9.70
2024-03-04T01:35:16.557Z,7.60
2024-03-04T01:37:44.978Z,9.00
2024-03-04T01:40:14.980Z,9.80
2024-03-04T01:42:45.856Z,9.70
2024-03-04T01:45:33.221Z,9.90
2024-03-04T01:48:04.967Z,9.50
2024-03-04T01:50:37.314Z,10.30
2024-03-04T01:53:05.332Z,9.30
2024-03-04T01:55:44.246Z,10.60
2024-03-04T01:58:16.563Z,10.50
2024-03-04T02:00:45.728Z,10.00
2024-03-04T02:03:14.450Z,9.60
2024-03-04T02:05:42.117Z,9.80
2024-03-04T02:08:09.686Z,9.70
2024-03-04T02:10:37.218Z,10.10
2024-03-04T02:13:06.075Z,10.20
2024-03-04T02:15:37.513Z,9.40
2024-03-04T02:18:06.891Z,9.90
2024-03-04T02:20:42.653Z,9.60
2024-03-04T02:23:13.072Z,10.70
2024-03-04T02:25:51.160Z,10.20
2024-03-04T02:28:18.921Z,10.20
2024-03-04T02:30:46.510Z,9.40
2024-03-04T02:33:14.036Z,9.90
2024-03-04T02:35:41.772Z,10.20
2024-03-04T02:38:09.230Z,10.40
2024-03-04T02:40:36.845Z,10.10
2024-03-04T02:43:05.286Z,9.50
2024-03-04T02:45:32.775Z,9.80
2024-03-04T02:48:00.300Z,9.40
2024-03-04T02:50:28.479Z,10.30
2024-03-04T02:52:56.009Z,10.00
2024-03-04T02:55:23.501Z,10.70
2024-03-04T02:57:51.064Z,9.30
2024-03-04T03:00:19.398Z,10.40
2024-03-04T03:02:46.831Z,9.90
2024-03-04T03:05:14.321Z,10.20
2024-03-04T03:07:41.865Z,10.60
2024-03-04T03:10:10.527Z,10.30
2024-03-04T03:12:39.556Z,11.00
2024-03-04T03:15:07.966Z,8.60
2024-03-04T03:17:38.369Z,10.20
2024-03-04T03:20:18.659Z,10.80
2024-03-04T03:22:52.618Z,11.70
2024-03-04T03:25:20.125Z,10.20
2024-03-04T03:27:47.594Z,10.40
2024-03-04T03:30:15.962Z,9.80
2024-03-04T03:32:44.247Z,10.10
2024-03-04T03:35:11.806Z,10.70
2024-03-04T03:37:39.359Z,10.60
2024-03-04T03:40:08.845Z,9.60
2024-03-04T03:42:36.389Z,10.60
2024-03-04T03:45:04.510Z,10.00
2024-03-04T03:47:32.313Z,10.70
2024-03-04T03:49:59.741Z,9.60
2024-03-04T03:52:27.341Z,11.10
2024-03-04T03:54:55.052Z,11.10
2024-03-04T03:57:22.494Z,10.60
2024-03-04T03:59:50.019Z,10.80
2024-03-04T04:02:17.590Z,10.40
2024-03-04T04:04:45.359Z,10.60
2024-03-04T04:07:13.018Z,10.70
2024-03-04T04:09:40.592Z,10.90
2024-03-04T04:12:08.586Z,10.80
2024-03-04T04:14:36.109Z,10.80
2024-03-04T04:17:03.663Z,10.50
2024-03-04T04:19:31.172Z,10.60
2024-03-04T04:21:58.909Z,10.10
2024-03-04T04:24:26.552Z,11.20
2024-03-04T04:26:54.023Z,11.30
2024-03-04T04:29:21.514Z,11.50
2024-03-04T04:31:49.220Z,11.30
2024-03-04T04:34:16.862Z,11.10
2024-03-04T04:36:51.274Z,10.40
2024-03-04T04:39:18.761Z,11.70
2024-03-04T04:41:46.621Z,11.40
2024-03-04T04:44:14.225Z,12.20
2024-03-04T04:46:41.765Z,11.80
2024-03-04T04:49:09.442Z,12.00
2024-03-04T04:51:36.974Z,11.20
2024-03-04T04:54:04.487Z,11.40
2024-03-04T04:56:31.958Z,11.70
2024-03-04T04:58:59.428Z,12.00
2024-03-04T05:01:28.006Z,11.60
2024-03-04T05:04:14.025Z,10.90
2024-03-04T05:06:43.559Z,11.80
2024-03-04T05:09:12.313Z,11.20
2024-03-04T05:11:39.858Z,10.80
2024-03-04T05:14:12.499Z,11.30
2024-03-04T05:16:39.967Z,11.80
2024-03-04T05:19:07.518Z,11.10
2024-03-04T05:21:35.025Z,11.50
2024-03-04T05:24:02.838Z,11.20
2024-03-04T05:26:30.283Z,11.20
2024-03-04T05:28:57.888Z,11.60
2024-03-04T05:31:26.847Z,11.70
2024-03-04T05:33:54.401Z,10.60
2024-03-04T05:36:22.678Z,10.80
2024-03-04T05:38:50.129Z,12.50
2024-03-04T05:41:17.625Z,12.30
2024-03-04T05:43:45.735Z,12.80
2024-03-04T05:46:13.705Z,11.90
2024-03-04T05:49:29.308Z,12.30
2024-03-04T05:51:59.962Z,13.00
2024-03-04T05:54:29.027Z,12.50
2024-03-04T05:56:56.493Z,13.10
2024-03-04T05:59:23.978Z,13.20
2024-03-04T06:01:51.545Z,13.10
2024-03-04T06:04:19.346Z,12.90
2024-03-04T06:06:47.541Z,12.90
2024-03-04T06:09:17.204Z,13.20
2024-03-04T06:11:45.067Z,12.50
2024-03-04T06:14:12.536Z,13.10
2024-03-04T06:16:40.062Z,12.70
2024-03-04T06:19:07.673Z,12.50
2024-03-04T06:21:37.056Z,13.10
2024-03-04T06:24:04.930Z,10.20
2024-03-04T06:26:32.567Z,12.60
2024-03-04T06:28:59.990Z,12.50
2024-03-04T06:31:27.866Z,12.20
2024-03-04T06:33:57.151Z,12.40
2024-03-04T06:36:26.418Z,13.20
2024-03-04T06:38:53.871Z,13.60
2024-03-04T06:41:21.314Z,14.30
2024-03-04T06:43:48.856Z,12.90
2024-03-04T06:46:16.482Z,13.20
2024-03-04T06:48:45.160Z,13.50
2024-03-04T06:51:12.772Z,13.60
2024-03-04T06:53:40.965Z,13.00
2024-03-04T06:56:10.529Z,12.70
2024-03-04T06:58:38.408Z,12.70
2024-03-04T07:01:06.082Z,13.50
2024-03-04T07:03:33.782Z,14.00
2024-03-04T07:06:01.317Z,13.50
2024-03-04T07:08:31.603Z,14.40
2024-03-04T07:11:01.001Z,14.30
2024-03-04T07:13:28.688Z,14.60
2024-03-04T07:15:56.227Z,13.80
2024-03-04T07:18:23.762Z,13.30
2024-03-04T07:20:51.400Z,13.20
2024-03-04T07:23:18.935Z,14.50
2024-03-04T07:25:46.560Z,13.70
2024-03-04T07:28:15.513Z,14.90
2024-03-04T07:30:43.128Z,15.20
2024-03-04T07:33:13.223Z,14.10
2024-03-04T07:35:41.571Z,13.90
2024-03-04T07:38:09.626Z,13.00
2024-03-04T07:40:37.616Z,14.90
2024-03-04T07:43:05.521Z,14.80
2024-03-04T07:45:33.056Z,16.10
2024-03-04T07:48:00.628Z,15.30
2024-03-04T07:50:28.247Z,15.00
2024-03-04T07:52:55.926Z,14.90
2024-03-04T07:55:24.197Z,14.80
2024-03-04T07:57:51.797Z,15.00
2024-03-04T08:00:20.025Z,15.70
2024-03-04T08:02:47.598Z,16.80
2024-03-04T08:05:15.146Z,15.40
2024-03-04T08:07:42.738Z,15.80
2024-03-04T08:10:11.047Z,15.60
2024-03-04T08:12:38.890Z,15.40
2024-03-04T08:15:07.126Z,14.60
2024-03-04T08:17:34.925Z,16.20
2024-03-04T08:20:09.029Z,17.30
2024-03-04T08:22:41.940Z,17.50
2024-03-04T08:25:09.975Z,16.90
2024-03-04T08:27:37.576Z,17.40
2024-03-04T08:30:06.295Z,17.10
2024-03-04T08:32:34.105Z,16.70
2024-03-04T08:35:01.706Z,17.00
2024-03-04T08:37:29.650Z,16.30
2024-03-04T08:40:00.787Z,16.80
2024-03-04T08:42:28.450Z,17.50
2024-03-04T08:44:55.979Z,16.60
2024-03-04T08:47:23.799Z,16.70
2024-03-04T08:49:51.427Z,15.70
2024-03-04T08:52:19.116Z,15.20
2024-03-04T08:54:46.763Z,17.30
2024-03-04T08:57:14.466Z,14.90
2024-03-04T08:59:42.171Z,15.80
2024-03-04T09:02:11.742Z,15.00
2024-03-04T09:04:39.433Z,15.80
2024-03-04T09:07:07.121Z,15.50
2024-03-04T09:09:36.718Z,15.30
2024-03-04T09:12:05.252Z,15.90
2024-03-04T09:14:32.806Z,14.90
2024-03-04T09:17:00.384Z,15.00
2024-03-04T09:19:27.928Z,15.60
2024-03-04T09:21:56.317Z,14.80
2024-03-04T09:24:23.922Z,15.40
2024-03-04T09:26:51.418Z,14.60
2024-03-04T09:29:18.985Z,14.90
2024-03-04T09:31:46.684Z,15.90
2024-03-04T09:34:14.358Z,15.80
2024-03-04T09:36:41.956Z,14.50
2024-03-04T09:39:12.883Z,14.80
2024-03-04T09:41:42.149Z,14.30
2024-03-04T09:44:09.754Z,15.30
2024-03-04T09:46:38.819Z,14.90
2024-03-04T09:49:06.732Z,15.30
2024-03-04T09:51:34.321Z,14.60
2024-03-04T09:54:02.888Z,14.40
2024-03-04T09:56:30.430Z,14.50
2024-03-04T09:58:58.014Z,14.50
2024-03-04T10:01:25.964Z,13.70
2024-03-04T10:03:53.771Z,14.10
2024-03-04T10:06:21.554Z,14.40
2024-03-04T10:08:49.164Z,12.80
2024-03-04T10:11:16.714Z,13.20
2024-03-04T10:13:44.518Z,13.70
2024-03-04T10:16:16.598Z,12.90
2024-03-04T10:19:03.277Z,11.60
2024-03-04T10:21:34.478Z,12.40
2024-03-04T10:24:09.313Z,12.20
2024-03-04T10:26:41.830Z,12.00
2024-03-04T10:29:09.740Z,12.80
2024-03-04T10:31:41.994Z,12.20
2024-03-04T10:34:09.721Z,11.50
2024-03-04T10:36:37.363Z,11.90
2024-03-04T10:39:06.737Z,11.80
2024-03-04T10:41:35.560Z,11.80
2024-03-04T10:44:03.991Z,11.50
2024-03-04T10:46:31.591Z,12.40
2024-03-04T10:48:59.268Z,12.10
2024-03-04T10:51:30.129Z,12.40
2024-03-04T10:54:00.984Z,13.70
2024-03-04T10:56:28.575Z,13.30
2024-03-04T10:58:57.866Z,12.80
2024-03-04T11:01:26.789Z,12.00
2024-03-04T11:03:59.037Z,13.80
2024-03-04T11:06:27.300Z,11.90
2024-03-04T11:08:58.413Z,11.80
2024-03-04T11:11:40.280Z,13.00
2024-03-04T11:14:16.054Z,12.20
2024-03-04T11:16:49.347Z,12.00
2024-03-04T11:19:32.220Z,11.80
2024-03-04T11:21:59.814Z,12.90
2024-03-04T11:24:29.044Z,13.00
2024-03-04T11:26:57.138Z,12.70
2024-03-04T11:29:25.029Z,12.20
2024-03-04T11:31:56.658Z,12.90
2024-03-04T11:34:24.290Z,12.30
2024-03-04T11:36:53.320Z,12.40
2024-03-04T11:39:25.945Z,12.60
2024-03-04T11:41:54.533Z,12.60
2024-03-04T11:44:26.114Z,12.80
2024-03-04T11:46:54.170Z,13.60
2024-03-04T11:49:32.393Z,11.60
2024-03-04T11:52:07.597Z,11.90
2024-03-04T11:54:36.271Z,13.30
2024-03-04T11:57:05.706Z,11.90
2024-03-04T11:59:33.446Z,13.40
2024-03-04T12:02:01.270Z,12.60
2024-03-04T12:04:30.787Z,14.10
2024-03-04T12:06:58.460Z,13.20
2024-03-04T12:09:45.049Z,13.20
2024-03-04T12:12:17.911Z,13.20
2024-03-04T12:14:46.220Z,12.10
2024-03-04T12:17:15.202Z,13.50
2024-03-04T12:19:56.423Z,13.10
2024-03-04T12:22:27.301Z,12.80
2024-03-04T12:25:05.573Z,12.30
2024-03-04T12:27:34.129Z,13.00
2024-03-04T12:30:16.080Z,13.20
2024-03-04T12:32:44.219Z,13.80
2024-03-04T12:35:31.140Z,13.20
2024-03-04T12:38:00.391Z,14.10
2024-03-04T12:40:28.310Z,12.80
2024-03-04T12:43:01.137Z,12.70
2024-03-04T12:45:32.804Z,13.60
2024-03-04T12:48:00.916Z,12.40
2024-03-04T12:50:29.825Z,13.10
2024-03-04T12:52:58.572Z,13.40
2024-03-04T12:55:26.707Z,13.00
2024-03-04T12:57:57.922Z,13.40
2024-03-04T13:00:28.443Z,12.90
2024-03-04T13:02:56.305Z,13.00
2024-03-04T13:05:24.055Z,13.30
2024-03-04T13:07:51.664Z,12.70
2024-03-04T13:10:19.307Z,13.60
2024-03-04T13:12:49.813Z,12.60
2024-03-04T13:15:17.770Z,12.50
2024-03-04T13:17:46.220Z,12.90
2024-03-04T13:20:17.010Z,13.50
2024-03-04T13:22:47.056Z,13.80
2024-03-04T13:25:17.414Z,14.50
2024-03-04T13:27:45.482Z,14.50
2024-03-04T13:30:13.743Z,13.50
2024-03-04T13:32:41.465Z,14.30
2024-03-04T13:35:10.533Z,14.50
2024-03-04T13:37:39.279Z,14.60
2024-03-04T13:40:07.972Z,14.80
2024-03-04T13:42:35.824Z,15.40
2024-03-04T13:45:03.566Z,15.00
2024-03-04T13:47:31.150Z,15.20
2024-03-04T13:49:58.758Z,15.70
2024-03-04T13:52:26.361Z,15.90
2024-03-04T13:54:54.016Z,16.90
2024-03-04T13:57:21.527Z,15.10
2024-03-04T13:59:49.194Z,16.30
2024-03-04T14:02:16.776Z,16.30
2024-03-04T14:04:44.505Z,16.70
2024-03-04T14:07:12.212Z,14.90
2024-03-04T14:09:39.912Z,15.90
2024-03-04T14:12:08.126Z,15.40
2024-03-04T14:14:35.663Z,14.90
2024-03-04T14:17:03.234Z,15.10
2024-03-04T14:19:30.890Z,15.60
2024-03-04T14:21:59.085Z,14.70
2024-03-04T14:24:26.795Z,14.90
2024-03-04T14:26:54.324Z,14.60
2024-03-04T14:29:21.853Z,14.70
2024-03-04T14:31:49.677Z,14.80
2024-03-04T14:34:17.424Z,14.90
2024-03-04T14:36:45.032Z,14.30
2024-03-04T14:39:12.719Z,14.70
2024-03-04T14:41:40.558Z,13.90
2024-03-04T14:44:08.425Z,14.10
2024-03-04T14:46:35.957Z,13.80
2024-03-04T14:49:03.744Z,14.50
2024-03-04T14:51:31.410Z,14.70
2024-03-04T14:53:58.953Z,15.90
2024-03-04T14:56:29.846Z,14.50
2024-03-04T14:58:57.917Z,14.50
2024-03-04T15:01:25.599Z,14.30
2024-03-04T15:03:53.370Z,14.40
2024-03-04T15:06:20.978Z,16.30
2024-03-04T15:08:51.323Z,15.90
2024-03-04T15:11:18.966Z,16.00
2024-03-04T15:13:46.857Z,17.20
2024-03-04T15:16:14.932Z,16.10
2024-03-04T15:18:42.746Z,17.00
2024-03-04T15:21:10.642Z,16.20
2024-03-04T15:23:38.511Z,17.00
2024-03-04T15:26:06.048Z,16.20
2024-03-04T15:28:33.628Z,16.10
2024-03-04T15:31:02.547Z,16.30
2024-03-04T15:33:31.054Z,16.60
2024-03-04T15:36:09.950Z,16.40
2024-03-04T15:38:45.435Z,15.80
2024-03-04T15:41:13.200Z,16.30
2024-03-04T15:43:40.743Z,16.00
2024-03-04T15:46:08.493Z,15.40
2024-03-04T15:48:36.794Z,15.70
2024-03-04T15:51:06.385Z,15.60
2024-03-04T15:53:35.239Z,16.40
2024-03-04T15:56:04.887Z,16.60
2024-03-04T15:58:32.735Z,16.70
2024-03-04T16:01:00.668Z,16.70
2024-03-04T16:03:30.562Z,17.60
2024-03-04T16:05:59.524Z,17.20
2024-03-04T16:08:27.087Z,17.40
2024-03-04T16:10:54.803Z,17.60
2024-03-04T16:13:22.446Z,17.80
2024-03-04T16:15:54.332Z,17.50
2024-03-04T16:18:23.590Z,18.00
2024-03-04T16:20:51.193Z,17.60
2024-03-04T16:23:19.482Z,17.50
2024-03-04T16:25:47.172Z,18.20
2024-03-04T16:28:15.210Z,18.60
2024-03-04T16:30:44.061Z,18.60
2024-03-04T16:33:11.598Z,18.60
2024-03-04T16:35:39.203Z,18.90
2024-03-04T16:38:07.097Z,18.60
2024-03-04T16:40:34.689Z,19.70
2024-03-04T16:43:02.997Z,19.10
2024-03-04T16:45:32.097Z,18.10
2024-03-04T16:47:59.722Z,17.30
2024-03-04T16:50:27.408Z,17.80
2024-03-04T16:52:55.837Z,17.70
2024-03-04T16:55:24.152Z,17.50
2024-03-04T16:57:54.849Z,16.30
2024-03-04T17:00:22.559Z,16.20
2024-03-04T17:02:50.840Z,16.70
2024-03-04T17:05:18.375Z,15.80
2024-03-04T17:07:49.031Z,16.80
2024-03-04T17:10:17.801Z,17.40
2024-03-04T17:12:45.561Z,16.50
2024-03-04T17:15:13.631Z,16.30
2024-03-04T17:17:41.769Z,16.80
2024-03-04T17:20:10.236Z,16.50
2024-03-04T17:22:38.329Z,16.00
2024-03-04T17:25:07.058Z,15.70
2024-03-04T17:27:34.803Z,15.40
2024-03-04T17:30:02.576Z,16.40
2024-03-04T17:32:30.512Z,16.60
2024-03-04T17:34:58.445Z,17.10
2024-03-04T17:37:26.101Z,17.60
2024-03-04T17:39:54.043Z,16.90
2024-03-04T17:42:21.595Z,16.90
2024-03-04T17:44:49.134Z,16.20
2024-03-04T17:47:16.669Z,17.00
2024-03-04T17:49:51.082Z,17.10
2024-03-04T17:52:18.779Z,17.90
2024-03-04T17:54:46.352Z,17.70
2024-03-04T17:57:14.050Z,17.10
2024-03-04T17:59:42.629Z,16.50
2024-03-04T18:02:10.578Z,17.30
2024-03-04T18:07:11.634Z,17.60
2024-03-04T18:09:40.766Z,17.20
2024-03-04T18:12:08.883Z,14.50
2024-03-04T18:14:38.095Z,18.50
2024-03-04T18:17:05.674Z,19.10
2024-03-04T18:19:33.384Z,19.40
2024-03-04T18:22:04.528Z,18.30
2024-03-04T18:24:32.163Z,19.10
2024-03-04T18:26:59.966Z,18.40
2024-03-04T18:29:27.471Z,19.00
2024-03-04T18:31:55.122Z,18.70
2024-03-04T18:34:24.773Z,17.40
2024-03-04T18:36:52.601Z,18.50
2024-03-04T18:39:20.745Z,17.20
2024-03-04T18:41:48.999Z,17.90
2024-03-04T18:44:16.531Z,18.00
2024-03-04T18:46:47.655Z,18.40
2024-03-04T18:49:15.400Z,17.10
2024-03-04T18:51:43.365Z,16.60
2024-03-04T18:54:16.510Z,17.10
2024-03-04T18:56:44.978Z,17.10
2024-03-04T18:59:12.554Z,18.10
2024-03-04T19:01:40.259Z,18.30
2024-03-04T19:04:07.880Z,18.50
2024-03-04T19:06:35.808Z,17.80
2024-03-04T19:09:05.963Z,17.90
2024-03-04T19:11:33.786Z,17.70
2024-03-04T19:14:01.575Z,18.90
2024-03-04T19:16:29.391Z,19.00
2024-03-04T19:18:57.110Z,18.40
2024-03-04T19:21:27.000Z,17.30
2024-03-04T19:23:54.879Z,18.10
2024-03-04T19:26:22.459Z,17.90
2024-03-04T19:28:51.433Z,18.50
2024-03-04T19:31:19.965Z,19.00
2024-03-04T19:33:50.801Z,17.90
2024-03-04T19:36:18.624Z,19.30
2024-03-04T19:38:46.298Z,19.50
2024-03-04T19:41:32.746Z,19.70
2024-03-04T19:44:00.452Z,19.00
2024-03-04T19:46:29.209Z,18.40
2024-03-04T19:48:57.276Z,18.10
2024-03-04T19:51:26.481Z,18.80
2024-03-04T19:53:54.973Z,18.70
2024-03-04T19:56:22.773Z,18.30
2024-03-04T19:58:50.391Z,19.00
2024-03-04T20:01:19.533Z,17.90
2024-03-04T20:03:47.142Z,18.30
2024-03-04T20:06:14.907Z,18.40
2024-03-04T20:08:42.973Z,18.90
2024-03-04T20:11:12.531Z,18.50
2024-03-04T20:13:44.292Z,17.90
2024-03-04T20:16:15.898Z,17.70
2024-03-04T20:18:43.626Z,18.00
2024-03-04T20:21:12.844Z,18.20
2024-03-04T20:23:42.268Z,18.30
2024-03-04T20:26:11.235Z,18.40
2024-03-04T20:28:38.845Z,18.60
2024-03-04T20:31:07.565Z,18.40
2024-03-04T20:33:35.807Z,18.60
2024-03-04T20:36:05.615Z,18.10
2024-03-04T20:41:01.414Z,18.80
2024-03-04T20:43:29.144Z,18.20
2024-03-04T20:45:57.762Z,19.80
2024-03-04T20:48:29.346Z,18.20
2024-03-04T20:50:57.789Z,18.60
2024-03-04T20:53:25.340Z,19.20
2024-03-04T20:55:53.051Z,17.90
2024-03-04T20:58:20.837Z,18.00
2024-03-04T21:00:48.645Z,18.90
2024-03-04T21:03:16.269Z,17.90
2024-03-04T21:05:43.877Z,18.10
2024-03-04T21:08:11.437Z,17.20
2024-03-04T21:10:39.549Z,18.70
2024-03-04T21:13:07.138Z,19.60
2024-03-04T21:15:34.712Z,20.40
2024-03-04T21:18:02.438Z,19.00
2024-03-04T21:20:30.147Z,19.50
2024-03-04T21:23:04.190Z,19.40
2024-03-04T21:25:32.505Z,18.30
2024-03-04T21:28:00.128Z,19.30
2024-03-04T21:30:29.233Z,18.20
2024-03-04T21:32:56.852Z,18.00
2024-03-04T21:35:24.370Z,18.70
2024-03-04T21:37:51.988Z,20.50
2024-03-04T21:40:19.805Z,19.20
2024-03-04T21:42:47.474Z,18.40
2024-03-04T21:45:15.028Z,18.60
2024-03-04T21:47:44.857Z,19.40
2024-03-04T21:50:12.429Z,19.30
2024-03-04T21:52:42.128Z,18.40
2024-03-04T21:57:37.512Z,18.10
2024-03-04T22:00:15.758Z,18.80
2024-03-04T22:02:46.863Z,19.60
2024-03-04T22:05:14.643Z,18.60
2024-03-04T22:07:42.685Z,17.70
2024-03-04T22:10:12.675Z,18.20
2024-03-04T22:12:41.472Z,18.70
2024-03-04T22:15:11.340Z,20.10
2024-03-04T22:20:11.550Z,19.10
2024-03-04T22:22:39.527Z,19.70
2024-03-04T22:25:08.299Z,19.80
2024-03-04T22:27:36.089Z,20.00
2024-03-04T22:30:05.291Z,20.70
2024-03-04T22:32:32.974Z,20.60
2024-03-04T22:35:01.917Z,19.10
2024-03-04T22:37:31.799Z,19.00
2024-03-04T22:42:27.031Z,18.80
2024-03-04T22:44:54.843Z,20.00
2024-03-04T22:47:24.338Z,19.70
2024-03-04T22:49:52.144Z,19.10
2024-03-04T22:52:20.336Z,16.80
2024-03-04T22:54:49.330Z,18.70
2024-03-04T22:57:16.984Z,19.60
2024-03-04T22:59:45.275Z,19.00
2024-03-04T23:02:13.252Z,18.30
2024-03-04T23:04:41.016Z,18.60
2024-03-04T23:07:08.632Z,18.40
2024-03-04T23:09:36.246Z,19.20
2024-03-04T23:12:09.928Z,19.60
2024-03-04T23:14:38.262Z,18.60
2024-03-04T23:17:09.619Z,18.60
2024-03-04T23:19:37.500Z,18.70
2024-03-04T23:22:06.908Z,19.20
2024-03-04T23:24:34.372Z,19.10
2024-03-04T23:27:01.855Z,18.70
2024-03-04T23:29:29.343Z,18.20
2024-03-04T23:31:56.908Z,18.70
2024-03-04T23:34:24.645Z,18.90
2024-03-04T23:36:52.506Z,19.40
2024-03-04T23:39:24.338Z,18.10
2024-03-04T23:41:52.451Z,18.10
2024-03-04T23:44:21.280Z,20.00
2024-03-04T23:46:48.941Z,19.80
2024-03-04T23:49:16.645Z,19.70
2024-03-04T23:51:44.317Z,18.60
2024-03-04T23:54:11.816Z,19.80
2024-03-04T23:56:42.905Z,21.00
2024-03-04T23:59:10.700Z,21.10
